createdAt,value
2022-11-13T00:00:09.542Z,100.00
2022-11-13T00:03:31.457Z,100.00
2022-11-13T00:06:58.797Z,100.00
2022-11-13T00:10:20.443Z,100.00
2022-11-13T00:13:42.906Z,100.00
2022-11-13T00:17:05.707Z,100.00
2022-11-13T00:20:26.790Z,100.00
2022-11-13T00:23:48.224Z,100.00
2022-11-13T00:27:09.618Z,100.00
2022-11-13T00:30:31.352Z,100.00
2022-11-13T00:34:09.521Z,100.00
2022-11-13T00:37:35.617Z,100.00
2022-11-13T00:40:56.730Z,100.00
2022-11-13T00:44:17.837Z,100.00
2022-11-13T00:47:38.938Z,100.00
2022-11-13T00:51:02.062Z,100.00
2022-11-13T00:54:23.534Z,100.00
2022-11-13T00:57:44.679Z,100.00
2022-11-13T01:01:07.400Z,100.00
2022-11-13T01:04:29.561Z,100.00
2022-11-13T01:07:52.478Z,100.00
2022-11-13T01:11:14.792Z,100.00
2022-11-13T01:14:36.128Z,100.00
2022-11-13T01:17:57.561Z,100.00
2022-11-13T01:21:19.894Z,100.00
2022-11-13T01:24:42.344Z,100.00
2022-11-13T01:28:03.483Z,100.00
2022-11-13T01:31:26.259Z,100.00
2022-11-13T01:34:47.279Z,100.00
2022-11-13T01:38:08.780Z,100.00
2022-11-13T01:41:32.293Z,100.00
2022-11-13T01:44:54.577Z,100.00
2022-11-13T01:48:16.335Z,100.00
2022-11-13T01:51:39.752Z,100.00
2022-11-13T01:55:03.444Z,100.00
2022-11-13T01:58:26.318Z,100.00
2022-11-13T02:01:48.287Z,100.00
2022-11-13T02:05:09.985Z,100.00
2022-11-13T02:08:31.890Z,100.00
2022-11-13T02:11:53.810Z,100.00
2022-11-13T02:15:16.506Z,100.00
2022-11-13T02:18:39.585Z,100.00
2022-11-13T02:22:04.874Z,100.00
2022-11-13T02:25:29.318Z,100.00
2022-11-13T02:28:50.316Z,100.00
2022-11-13T02:32:11.741Z,100.00
2022-11-13T02:35:34.502Z,100.00
2022-11-13T02:38:57.754Z,100.00
2022-11-13T02:42:20.674Z,100.00
2022-11-13T02:45:42.115Z,100.00
2022-11-13T02:49:03.480Z,100.00
2022-11-13T02:52:24.639Z,100.00
2022-11-13T02:55:45.826Z,100.00
2022-11-13T02:59:08.353Z,100.00
2022-11-13T03:02:29.764Z,100.00
2022-11-13T03:05:51.102Z,100.00
2022-11-13T03:09:12.666Z,100.00
2022-11-13T03:12:34.118Z,100.00
2022-11-13T03:15:56.806Z,100.00
2022-11-13T03:19:18.435Z,100.00
2022-11-13T03:22:39.678Z,100.00
2022-11-13T03:26:03.393Z,100.00
2022-11-13T03:29:24.464Z,100.00
2022-11-13T03:32:47.448Z,100.00
2022-11-13T03:36:09.350Z,100.00
2022-11-13T03:39:30.863Z,100.00
2022-11-13T03:42:52.500Z,100.00
2022-11-13T03:46:13.721Z,100.00
2022-11-13T03:49:36.518Z,100.00
2022-11-13T03:52:57.819Z,100.00
2022-11-13T03:56:19.123Z,100.00
2022-11-13T03:59:40.516Z,100.00
2022-11-13T04:03:01.832Z,100.00
2022-11-13T04:06:24.320Z,100.00
2022-11-13T04:09:45.581Z,100.00
2022-11-13T04:13:06.933Z,100.00
2022-11-13T04:16:27.998Z,100.00
2022-11-13T04:19:49.016Z,100.00
2022-11-13T04:23:12.753Z,100.00
2022-11-13T04:26:34.115Z,100.00
2022-11-13T04:29:55.436Z,100.00
2022-11-13T04:33:16.402Z,100.00
2022-11-13T04:36:37.755Z,100.00
2022-11-13T04:40:00.354Z,100.00
2022-11-13T04:43:20.698Z,100.00
2022-11-13T04:46:41.848Z,100.00
2022-11-13T04:50:03.011Z,100.00
2022-11-13T04:53:24.176Z,100.00
2022-11-13T04:56:46.753Z,100.00
2022-11-13T05:00:09.130Z,100.00
2022-11-13T05:03:30.705Z,100.00
2022-11-13T05:06:52.624Z,100.00
2022-11-13T05:10:14.136Z,100.00
2022-11-13T05:13:37.857Z,100.00
2022-11-13T05:16:59.628Z,100.00
2022-11-13T05:20:21.096Z,100.00
2022-11-13T05:23:42.219Z,100.00
2022-11-13T05:27:03.251Z,100.00
2022-11-13T05:30:26.036Z,100.00
2022-11-13T05:33:47.365Z,100.00
2022-11-13T05:37:08.660Z,100.00
2022-11-13T05:40:30.061Z,100.00
2022-11-13T05:43:58.080Z,100.00
2022-11-13T05:47:22.197Z,100.00
2022-11-13T05:50:43.274Z,100.00
2022-11-13T05:54:04.563Z,100.00
2022-11-13T05:57:25.613Z,100.00
2022-11-13T06:00:46.884Z,100.00
2022-11-13T06:04:09.589Z,100.00
2022-11-13T06:07:31.263Z,100.00
2022-11-13T06:10:52.271Z,100.00
2022-11-13T06:14:13.487Z,100.00
2022-11-13T06:17:34.851Z,100.00
2022-11-13T06:20:57.230Z,100.00
2022-11-13T06:24:19.513Z,100.00
2022-11-13T06:27:40.936Z,100.00
2022-11-13T06:31:05.650Z,100.00
2022-11-13T06:34:26.987Z,100.00
2022-11-13T06:37:49.522Z,100.00
2022-11-13T06:41:12.293Z,100.00
2022-11-13T06:44:33.434Z,100.00
2022-11-13T06:47:55.233Z,100.00
2022-11-13T06:51:19.081Z,100.00
2022-11-13T06:54:41.971Z,100.00
2022-11-13T06:58:03.245Z,100.00
2022-11-13T07:01:25.402Z,100.00
2022-11-13T07:04:46.491Z,100.00
2022-11-13T07:08:07.847Z,100.00
2022-11-13T07:11:30.232Z,100.00
2022-11-13T07:14:51.369Z,100.00
2022-11-13T07:18:12.559Z,100.00
2022-11-13T07:21:33.880Z,100.00
2022-11-13T07:24:56.011Z,100.00
2022-11-13T07:28:18.624Z,100.00
2022-11-13T07:31:39.835Z,100.00
2022-11-13T07:35:00.947Z,100.00
2022-11-13T07:38:22.203Z,100.00
2022-11-13T07:41:43.805Z,99.95
2022-11-13T07:45:06.840Z,100.00
2022-11-13T07:48:28.733Z,100.00
2022-11-13T07:51:50.144Z,100.00
2022-11-13T07:55:11.222Z,100.00
2022-11-13T07:58:32.807Z,100.00
2022-11-13T08:01:55.506Z,100.00
2022-11-13T08:05:16.866Z,99.03
2022-11-13T08:08:38.124Z,99.92
2022-11-13T08:11:59.285Z,93.51
2022-11-13T08:15:20.380Z,90.83
2022-11-13T08:18:43.008Z,89.06
2022-11-13T08:22:04.406Z,92.39
2022-11-13T08:25:26.214Z,94.62
2022-11-13T08:28:48.046Z,99.48
2022-11-13T08:32:09.301Z,100.00
2022-11-13T08:35:31.859Z,98.69
2022-11-13T08:38:53.259Z,97.82
2022-11-13T08:42:14.451Z,97.26
2022-11-13T08:45:36.036Z,99.14
2022-11-13T08:48:57.150Z,96.25
2022-11-13T08:52:19.841Z,93.71
2022-11-13T08:55:40.877Z,93.91
2022-11-13T08:59:01.935Z,96.98
2022-11-13T09:02:23.051Z,98.47
2022-11-13T09:05:44.228Z,95.33
2022-11-13T09:09:07.695Z,96.98
2022-11-13T09:12:28.933Z,89.43
2022-11-13T09:15:50.198Z,87.29
2022-11-13T09:19:11.758Z,93.16
2022-11-13T09:22:33.218Z,92.12
2022-11-13T09:25:55.663Z,90.08
2022-11-13T09:29:17.100Z,88.69
2022-11-13T09:32:38.619Z,89.05
2022-11-13T09:35:59.638Z,91.26
2022-11-13T09:39:21.013Z,87.36
2022-11-13T09:42:43.948Z,85.88
2022-11-13T09:46:07.113Z,82.54
2022-11-13T09:49:29.654Z,82.79
2022-11-13T09:52:52.231Z,82.40
2022-11-13T09:56:20.344Z,78.00
2022-11-13T09:59:47.036Z,76.80
2022-11-13T10:03:33.435Z,79.20
2022-11-13T10:07:05.092Z,81.28
2022-11-13T10:10:37.364Z,74.56
2022-11-13T10:14:01.567Z,77.29
2022-11-13T10:17:26.002Z,80.23
2022-11-13T10:20:50.566Z,77.56
2022-11-13T10:24:16.990Z,75.84
2022-11-13T10:27:38.657Z,77.08
2022-11-13T10:31:00.165Z,76.40
2022-11-13T10:34:22.796Z,76.58
2022-11-13T10:37:51.213Z,77.21
2022-11-13T10:41:13.513Z,78.64
2022-11-13T10:44:35.342Z,75.99
2022-11-13T10:48:04.159Z,77.95
2022-11-13T10:51:28.501Z,79.55
2022-11-13T10:54:50.308Z,80.21
2022-11-13T10:58:16.412Z,82.25
2022-11-13T11:01:37.905Z,85.08
2022-11-13T11:05:02.669Z,87.07
2022-11-13T11:08:29.680Z,87.85
2022-11-13T11:12:19.119Z,88.19
2022-11-13T11:15:42.898Z,87.90
2022-11-13T11:19:10.032Z,86.15
2022-11-13T11:22:34.124Z,86.25
2022-11-13T11:25:58.472Z,88.84
2022-11-13T11:29:22.784Z,89.79
2022-11-13T11:32:46.363Z,93.04
2022-11-13T11:36:14.858Z,90.63
2022-11-13T11:39:39.185Z,94.74
2022-11-13T11:43:06.985Z,93.34
2022-11-13T11:46:28.520Z,92.21
2022-11-13T11:49:50.419Z,91.13
2022-11-13T11:53:15.601Z,93.97
2022-11-13T11:56:38.637Z,90.11
2022-11-13T12:00:06.558Z,92.50
2022-11-13T12:03:38.805Z,90.17
2022-11-13T12:07:06.879Z,87.71
2022-11-13T12:10:32.388Z,91.79
2022-11-13T12:13:59.905Z,93.39
2022-11-13T12:17:31.453Z,90.18
2022-11-13T12:20:58.224Z,86.76
2022-11-13T12:24:37.676Z,86.55
2022-11-13T12:28:00.836Z,87.33
2022-11-13T12:31:29.932Z,88.13
2022-11-13T12:34:58.549Z,89.22
2022-11-13T12:38:27.166Z,89.22
2022-11-13T12:41:50.695Z,89.94
2022-11-13T12:45:17.176Z,88.83
2022-11-13T12:48:40.723Z,84.97
2022-11-13T12:52:04.024Z,88.60
2022-11-13T12:55:26.392Z,92.56
2022-11-13T12:59:23.869Z,95.13
2022-11-13T13:02:53.949Z,91.30
2022-11-13T13:06:23.459Z,94.05
2022-11-13T13:09:54.545Z,94.99
2022-11-13T13:13:23.917Z,96.97
2022-11-13T13:16:46.046Z,94.46
2022-11-13T13:20:25.644Z,94.67
2022-11-13T13:23:48.036Z,96.42
2022-11-13T13:27:23.967Z,95.67
2022-11-13T13:30:49.625Z,98.66
2022-11-13T13:34:25.212Z,99.76
2022-11-13T13:37:51.026Z,100.00
2022-11-13T13:41:18.201Z,100.00
2022-11-13T13:44:49.372Z,100.00
2022-11-13T13:48:12.127Z,100.00
2022-11-13T13:51:35.405Z,100.00
2022-11-13T13:54:56.846Z,100.00
2022-11-13T13:58:20.375Z,100.00
2022-11-13T14:01:43.165Z,100.00
2022-11-13T14:05:18.591Z,100.00
2022-11-13T14:08:39.943Z,100.00
2022-11-13T14:12:07.824Z,100.00
2022-11-13T14:15:31.793Z,100.00
2022-11-13T14:19:03.435Z,100.00
2022-11-13T14:22:24.867Z,100.00
2022-11-13T14:25:46.763Z,100.00
2022-11-13T14:29:13.149Z,100.00
2022-11-13T14:32:35.474Z,100.00
2022-11-13T14:35:58.979Z,100.00
2022-11-13T14:39:23.169Z,100.00
2022-11-13T14:42:46.554Z,100.00
2022-11-13T14:46:07.973Z,100.00
2022-11-13T14:49:30.405Z,100.00
2022-11-13T14:53:00.578Z,100.00
2022-11-13T14:56:32.004Z,100.00
2022-11-13T14:59:53.377Z,100.00
2022-11-13T15:03:14.599Z,100.00
2022-11-13T15:06:38.305Z,100.00
2022-11-13T15:10:01.215Z,100.00
2022-11-13T15:13:22.645Z,100.00
2022-11-13T15:16:44.742Z,100.00
2022-11-13T15:20:09.663Z,100.00
2022-11-13T15:23:31.616Z,100.00
2022-11-13T15:26:54.524Z,100.00
2022-11-13T15:30:16.630Z,100.00
2022-11-13T15:33:38.131Z,100.00
2022-11-13T15:36:59.357Z,100.00
2022-11-13T15:40:20.554Z,100.00
2022-11-13T15:43:45.303Z,100.00
2022-11-13T15:47:13.541Z,100.00
2022-11-13T15:50:35.225Z,100.00
2022-11-13T15:53:58.147Z,100.00
2022-11-13T15:57:21.173Z,100.00
2022-11-13T16:00:43.837Z,100.00
2022-11-13T16:04:06.163Z,100.00
2022-11-13T16:07:29.256Z,100.00
2022-11-13T16:10:50.518Z,100.00
2022-11-13T16:14:11.716Z,100.00
2022-11-13T16:17:37.795Z,100.00
2022-11-13T16:20:58.843Z,100.00
2022-11-13T16:24:22.916Z,100.00
2022-11-13T16:27:46.158Z,100.00
2022-11-13T16:31:07.246Z,100.00
2022-11-13T16:34:29.714Z,100.00
2022-11-13T16:37:50.829Z,100.00
2022-11-13T16:41:12.633Z,100.00
2022-11-13T16:44:34.199Z,100.00
2022-11-13T16:47:57.253Z,100.00
2022-11-13T16:51:20.028Z,100.00
2022-11-13T16:54:41.557Z,100.00
2022-11-13T16:58:03.129Z,100.00
2022-11-13T17:01:25.185Z,100.00
2022-11-13T17:04:46.431Z,100.00
2022-11-13T17:08:09.919Z,100.00
2022-11-13T17:11:32.604Z,100.00
2022-11-13T17:14:53.866Z,100.00
2022-11-13T17:18:14.838Z,100.00
2022-11-13T17:21:38.927Z,100.00
2022-11-13T17:25:05.858Z,100.00
2022-11-13T17:28:27.233Z,100.00
2022-11-13T17:31:48.490Z,100.00
2022-11-13T17:35:10.527Z,100.00
2022-11-13T17:38:31.805Z,100.00
2022-11-13T17:41:54.465Z,100.00
2022-11-13T17:45:15.808Z,100.00
2022-11-13T17:48:37.835Z,100.00
2022-11-13T17:51:59.026Z,100.00
2022-11-13T17:55:20.789Z,100.00
2022-11-13T17:58:44.148Z,100.00
2022-11-13T18:02:05.759Z,100.00
2022-11-13T18:05:27.213Z,100.00
2022-11-13T18:08:48.901Z,100.00
2022-11-13T18:12:10.218Z,100.00
2022-11-13T18:15:34.376Z,100.00
2022-11-13T18:18:56.185Z,100.00
2022-11-13T18:22:17.864Z,100.00
2022-11-13T18:25:39.927Z,100.00
2022-11-13T18:29:01.941Z,100.00
2022-11-13T18:32:24.900Z,100.00
2022-11-13T18:35:46.480Z,100.00
2022-11-13T18:39:11.453Z,100.00
2022-11-13T18:42:34.881Z,100.00
2022-11-13T18:45:59.868Z,100.00
2022-11-13T18:49:22.647Z,100.00
2022-11-13T18:52:43.741Z,100.00
2022-11-13T18:56:05.691Z,100.00
2022-11-13T18:59:27.206Z,100.00
2022-11-13T19:02:51.019Z,100.00
2022-11-13T19:06:15.360Z,100.00
2022-11-13T19:09:36.670Z,100.00
2022-11-13T19:12:58.158Z,100.00
2022-11-13T19:16:20.575Z,100.00
2022-11-13T19:19:42.785Z,100.00
2022-11-13T19:23:09.559Z,100.00
2022-11-13T19:26:31.071Z,100.00
2022-11-13T19:29:52.711Z,100.00
2022-11-13T19:33:17.534Z,100.00
2022-11-13T19:36:40.987Z,100.00
2022-11-13T19:40:06.949Z,100.00
2022-11-13T19:43:28.650Z,100.00
2022-11-13T19:46:51.461Z,100.00
2022-11-13T19:50:13.191Z,100.00
2022-11-13T19:53:34.972Z,100.00
2022-11-13T19:57:00.251Z,100.00
2022-11-13T20:00:21.993Z,100.00
2022-11-13T20:03:43.329Z,100.00
2022-11-13T20:07:04.802Z,100.00
2022-11-13T20:10:27.123Z,100.00
2022-11-13T20:13:50.146Z,100.00
2022-11-13T20:17:11.649Z,100.00
2022-11-13T20:20:33.072Z,100.00
2022-11-13T20:23:56.819Z,100.00
2022-11-13T20:27:20.975Z,100.00
2022-11-13T20:30:43.761Z,100.00
2022-11-13T20:34:06.086Z,100.00
2022-11-13T20:37:28.169Z,100.00
2022-11-13T20:40:49.499Z,100.00
2022-11-13T20:44:12.347Z,100.00
2022-11-13T20:47:36.178Z,100.00
2022-11-13T20:50:57.497Z,100.00
2022-11-13T20:54:18.587Z,100.00
2022-11-13T20:57:41.174Z,100.00
2022-11-13T21:01:03.651Z,100.00
2022-11-13T21:04:26.054Z,100.00
2022-11-13T21:07:47.097Z,100.00
2022-11-13T21:11:08.995Z,100.00
2022-11-13T21:14:30.439Z,100.00
2022-11-13T21:17:52.679Z,100.00
2022-11-13T21:21:18.866Z,100.00
2022-11-13T21:24:40.323Z,100.00
2022-11-13T21:28:01.609Z,100.00
2022-11-13T21:31:22.751Z,100.00
2022-11-13T21:34:43.922Z,100.00
2022-11-13T21:38:06.655Z,100.00
2022-11-13T21:41:27.878Z,100.00
2022-11-13T21:44:49.777Z,100.00
2022-11-13T21:48:10.937Z,100.00
2022-11-13T21:51:32.687Z,100.00
2022-11-13T21:54:55.503Z,100.00
2022-11-13T21:58:17.039Z,100.00
2022-11-13T22:01:39.050Z,100.00
2022-11-13T22:05:00.199Z,100.00
2022-11-13T22:08:21.305Z,100.00
2022-11-13T22:11:43.890Z,100.00
2022-11-13T22:15:05.212Z,100.00
2022-11-13T22:18:26.685Z,100.00
2022-11-13T22:21:47.960Z,100.00
2022-11-13T22:25:09.250Z,100.00
2022-11-13T22:28:32.599Z,100.00
2022-11-13T22:31:54.049Z,100.00
2022-11-13T22:35:15.583Z,100.00
2022-11-13T22:38:37.594Z,100.00
2022-11-13T22:41:59.454Z,100.00
2022-11-13T22:45:24.350Z,100.00
2022-11-13T22:48:46.862Z,100.00
2022-11-13T22:52:08.119Z,100.00
2022-11-13T22:55:29.089Z,100.00
2022-11-13T22:58:50.202Z,100.00
2022-11-13T23:02:12.799Z,100.00
2022-11-13T23:05:35.609Z,100.00
2022-11-13T23:08:56.964Z,100.00
2022-11-13T23:12:19.591Z,100.00
2022-11-13T23:15:40.931Z,100.00
2022-11-13T23:19:03.837Z,100.00
2022-11-13T23:22:25.057Z,100.00
2022-11-13T23:25:46.473Z,100.00
2022-11-13T23:29:07.634Z,100.00
2022-11-13T23:32:28.520Z,100.00
2022-11-13T23:35:51.109Z,100.00
2022-11-13T23:39:12.677Z,100.00
2022-11-13T23:42:54.137Z,100.00
2022-11-13T23:46:15.112Z,100.00
2022-11-13T23:49:36.148Z,100.00
2022-11-13T23:52:58.520Z,100.00
2022-11-13T23:56:19.619Z,100.00
2022-11-13T23:59:41.134Z,100.00
